createdAt,value
2022-10-24T00:01:41.744Z,53.60
2022-10-24T00:04:10.692Z,37.17
2022-10-24T00:06:40.490Z,50.17
2022-10-24T00:09:09.314Z,47.25
2022-10-24T00:11:37.567Z,35.78
2022-10-24T00:14:05.779Z,37.85
2022-10-24T00:16:34.074Z,45.08
2022-10-24T00:19:02.245Z,42.47
2022-10-24T00:21:30.562Z,34.80
2022-10-24T00:23:58.767Z,49.08
2022-10-24T00:26:26.962Z,42.28
2022-10-24T00:28:55.288Z,39.22
2022-10-24T00:31:23.541Z,49.83
2022-10-24T00:33:51.755Z,31.98
2022-10-24T00:36:24.134Z,23.73
2022-10-24T00:38:53.502Z,46.30
2022-10-24T00:41:28.945Z,28.80
2022-10-24T00:44:15.755Z,42.97
2022-10-24T00:46:57.528Z,56.25
2022-10-24T00:49:49.033Z,25.83
2022-10-24T00:52:22.660Z,75.53
2022-10-24T00:54:53.911Z,41.38
2022-10-24T00:57:25.400Z,38.80
2022-10-24T00:59:58.683Z,77.43
2022-10-24T01:02:27.373Z,52.38
2022-10-24T01:04:55.553Z,32.50
2022-10-24T01:08:05.177Z,25.33
2022-10-24T01:10:42.137Z,130.13
2022-10-24T01:13:17.541Z,55.08
2022-10-24T01:15:51.882Z,42.47
2022-10-24T01:18:20.081Z,31.27
2022-10-24T01:21:19.710Z,20.27
2022-10-24T01:24:09.381Z,18.55
2022-10-24T01:27:02.221Z,18.38
2022-10-24T01:29:56.702Z,24.20
2022-10-24T01:32:43.149Z,23.35
2022-10-24T01:35:32.268Z,16.42
2022-10-24T01:38:08.077Z,17.98
2022-10-24T01:40:45.524Z,22.00
2022-10-24T01:43:16.849Z,17.10
2022-10-24T01:45:50.241Z,19.97
2022-10-24T01:48:40.479Z,16.83
2022-10-24T01:51:10.044Z,17.63
2022-10-24T01:53:39.522Z,21.52
2022-10-24T01:56:07.886Z,14.77
2022-10-24T01:58:36.385Z,18.27
2022-10-24T02:01:10.927Z,18.65
2022-10-24T02:03:48.810Z,18.45
2022-10-24T02:06:23.550Z,23.40
2022-10-24T02:08:59.959Z,15.93
2022-10-24T02:11:28.391Z,21.50
2022-10-24T02:14:06.699Z,53.15
2022-10-24T02:16:36.151Z,43.92
2022-10-24T02:19:05.345Z,10.43
2022-10-24T02:21:44.267Z,9.65
2022-10-24T02:24:31.991Z,8.07
2022-10-24T02:27:08.766Z,5.88
2022-10-24T02:29:58.885Z,6.32
2022-10-24T02:32:34.236Z,8.48
2022-10-24T02:35:04.609Z,16.02
2022-10-24T02:37:34.988Z,16.77
2022-10-24T02:40:06.284Z,14.25
2022-10-24T02:42:36.078Z,13.93
2022-10-24T02:45:05.956Z,9.75
2022-10-24T02:47:34.499Z,11.13
2022-10-24T02:50:03.366Z,14.40
2022-10-24T02:52:31.549Z,12.48
2022-10-24T02:54:59.981Z,14.95
2022-10-24T02:57:28.245Z,15.05
2022-10-24T02:59:56.405Z,15.80
2022-10-24T03:02:24.911Z,14.70
2022-10-24T03:04:53.061Z,11.52
2022-10-24T03:07:21.356Z,9.52
2022-10-24T03:09:49.530Z,5.90
2022-10-24T03:12:18.101Z,5.57
2022-10-24T03:14:46.240Z,10.55
2022-10-24T03:17:14.497Z,7.20
2022-10-24T03:19:42.606Z,9.10
2022-10-24T03:22:10.814Z,8.50
2022-10-24T03:24:44.530Z,11.88
2022-10-24T03:27:23.222Z,12.60
2022-10-24T03:29:51.457Z,9.50
2022-10-24T03:32:19.700Z,16.55
2022-10-24T03:34:47.962Z,13.70
2022-10-24T03:37:16.197Z,13.75
2022-10-24T03:39:44.453Z,16.40
2022-10-24T03:42:12.636Z,13.73
2022-10-24T03:44:40.926Z,13.90
2022-10-24T03:47:09.216Z,15.65
2022-10-24T03:49:37.373Z,15.25
2022-10-24T03:52:05.852Z,14.95
2022-10-24T03:54:34.098Z,11.48
2022-10-24T03:57:02.322Z,15.57
2022-10-24T03:59:30.464Z,14.90
2022-10-24T04:01:59.043Z,11.90
2022-10-24T04:04:27.233Z,14.93
2022-10-24T04:06:55.614Z,12.52
2022-10-24T04:09:23.859Z,11.52
2022-10-24T04:11:51.974Z,13.77
2022-10-24T04:14:21.253Z,15.93
2022-10-24T04:16:49.634Z,13.10
2022-10-24T04:19:17.680Z,13.90
2022-10-24T04:21:46.256Z,9.63
2022-10-24T04:24:15.013Z,9.48
2022-10-24T04:26:43.341Z,21.15
2022-10-24T04:29:11.710Z,24.48
2022-10-24T04:31:39.892Z,14.90
2022-10-24T04:34:07.991Z,14.10
2022-10-24T04:36:36.399Z,13.98
2022-10-24T04:39:05.001Z,14.35
2022-10-24T04:41:33.299Z,8.88
2022-10-24T04:44:01.353Z,13.45
2022-10-24T04:46:29.471Z,15.65
2022-10-24T04:48:57.714Z,9.68
2022-10-24T04:51:26.155Z,10.10
2022-10-24T04:53:54.572Z,9.82
2022-10-24T04:56:22.721Z,6.15
2022-10-24T04:58:50.834Z,9.35
2022-10-24T05:01:19.129Z,6.35
2022-10-24T05:03:47.326Z,6.70
2022-10-24T05:06:15.648Z,8.20
2022-10-24T05:08:43.734Z,12.77
2022-10-24T05:11:11.850Z,9.38
2022-10-24T05:13:40.357Z,13.40
2022-10-24T05:16:08.500Z,12.02
2022-10-24T05:18:36.855Z,13.30
2022-10-24T05:21:05.085Z,11.48
2022-10-24T05:23:33.222Z,11.65
2022-10-24T05:26:01.350Z,14.32
2022-10-24T05:28:29.770Z,11.05
2022-10-24T05:30:57.783Z,16.00
2022-10-24T05:33:26.052Z,20.88
2022-10-24T05:35:54.786Z,16.80
2022-10-24T05:38:23.067Z,27.35
2022-10-24T05:40:51.177Z,37.63
2022-10-24T05:43:19.786Z,25.40
2022-10-24T05:48:22.610Z,16.77
2022-10-24T05:50:50.682Z,21.42
2022-10-24T05:53:18.790Z,19.55
2022-10-24T05:55:46.891Z,13.10
2022-10-24T05:58:15.200Z,15.93
2022-10-24T06:00:43.262Z,16.67
2022-10-24T06:03:12.575Z,12.90
2022-10-24T06:05:40.857Z,13.20
2022-10-24T06:08:09.648Z,24.13
2022-10-24T06:10:37.985Z,15.70
2022-10-24T06:13:06.020Z,10.30
2022-10-24T06:15:34.225Z,12.82
2022-10-24T06:18:02.496Z,15.48
2022-10-24T06:20:30.569Z,15.27
2022-10-24T06:22:58.775Z,13.65
2022-10-24T06:25:27.058Z,8.27
2022-10-24T06:27:55.425Z,15.35
2022-10-24T06:30:23.646Z,6.57
2022-10-24T06:32:52.090Z,12.10
2022-10-24T06:35:20.783Z,8.70
2022-10-24T06:37:49.073Z,6.15
2022-10-24T06:40:18.517Z,6.45
2022-10-24T06:42:47.098Z,7.07
2022-10-24T06:45:15.226Z,11.52
2022-10-24T06:47:43.994Z,9.20
2022-10-24T06:50:12.418Z,7.97
2022-10-24T06:52:40.692Z,9.18
2022-10-24T06:55:09.753Z,11.85
2022-10-24T06:57:38.062Z,9.85
2022-10-24T07:00:07.556Z,12.00
2022-10-24T07:02:36.105Z,11.40
2022-10-24T07:05:04.697Z,10.25
2022-10-24T07:07:33.048Z,9.55
2022-10-24T07:10:01.316Z,14.45
2022-10-24T07:12:29.357Z,12.35
2022-10-24T07:14:57.625Z,9.57
2022-10-24T07:17:26.057Z,12.35
2022-10-24T07:19:55.105Z,9.68
2022-10-24T07:22:24.127Z,11.50
2022-10-24T07:24:55.818Z,10.93
2022-10-24T07:27:24.628Z,12.75
2022-10-24T07:29:52.794Z,11.75
2022-10-24T07:32:21.924Z,9.20
2022-10-24T07:34:50.503Z,12.10
2022-10-24T07:37:19.592Z,16.75
2022-10-24T07:39:47.801Z,13.68
2022-10-24T07:42:16.157Z,15.20
2022-10-24T07:44:44.472Z,14.82
2022-10-24T07:47:12.709Z,15.85
2022-10-24T07:49:40.902Z,17.15
2022-10-24T07:52:09.154Z,14.10
2022-10-24T07:54:37.746Z,14.43
2022-10-24T07:57:06.202Z,13.88
2022-10-24T07:59:42.213Z,10.75
2022-10-24T08:02:14.945Z,13.77
2022-10-24T08:04:43.499Z,12.35
2022-10-24T08:07:12.822Z,15.43
2022-10-24T08:09:43.953Z,20.65
2022-10-24T08:12:12.540Z,17.45
2022-10-24T08:14:42.165Z,15.30
2022-10-24T08:17:11.409Z,16.27
2022-10-24T08:19:42.412Z,12.63
2022-10-24T08:22:12.944Z,15.30
2022-10-24T08:24:43.393Z,22.85
2022-10-24T08:27:12.005Z,18.35
2022-10-24T08:29:40.704Z,14.15
2022-10-24T08:32:09.053Z,11.80
2022-10-24T08:34:39.300Z,9.75
2022-10-24T08:37:07.624Z,18.38
2022-10-24T08:39:35.865Z,15.20
2022-10-24T08:42:08.818Z,18.52
2022-10-24T08:44:42.169Z,16.50
2022-10-24T08:47:31.652Z,13.10
2022-10-24T08:50:12.617Z,18.20
2022-10-24T08:53:00.573Z,18.48
2022-10-24T08:55:49.748Z,22.38
2022-10-24T08:58:37.757Z,13.35
2022-10-24T09:01:15.310Z,18.42
2022-10-24T09:04:00.801Z,21.20
2022-10-24T09:06:34.931Z,17.02
2022-10-24T09:09:20.477Z,18.55
2022-10-24T09:11:54.574Z,15.77
2022-10-24T09:14:24.620Z,16.42
2022-10-24T09:17:02.014Z,15.23
2022-10-24T09:19:31.883Z,14.98
2022-10-24T09:22:01.763Z,17.35
2022-10-24T09:24:42.494Z,23.25
2022-10-24T09:27:24.574Z,15.05
2022-10-24T09:29:53.770Z,12.00
2022-10-24T09:32:25.651Z,17.95
2022-10-24T09:34:54.907Z,11.93
2022-10-24T09:37:40.396Z,18.13
2022-10-24T09:40:28.980Z,14.25
2022-10-24T09:43:07.258Z,14.38
2022-10-24T09:45:44.021Z,81.03
2022-10-24T09:48:47.421Z,32.03
2022-10-24T09:51:22.377Z,16.85
2022-10-24T09:54:21.187Z,17.30
2022-10-24T09:57:00.336Z,23.27
2022-10-24T09:59:47.085Z,22.95
2022-10-24T10:02:20.327Z,19.10
2022-10-24T10:04:54.035Z,20.27
2022-10-24T10:07:28.450Z,15.30
2022-10-24T10:10:08.673Z,17.05
2022-10-24T10:12:42.816Z,15.55
2022-10-24T10:15:38.627Z,21.77
2022-10-24T10:18:25.484Z,17.17
2022-10-24T10:21:05.610Z,16.98
2022-10-24T10:23:40.386Z,21.38
2022-10-24T10:26:29.421Z,19.42
2022-10-24T10:29:07.205Z,20.30
2022-10-24T10:31:38.387Z,17.42
2022-10-24T10:34:20.422Z,16.55
2022-10-24T10:37:13.207Z,20.00
2022-10-24T10:39:53.668Z,15.57
2022-10-24T10:42:45.000Z,15.07
2022-10-24T10:45:13.502Z,20.50
2022-10-24T10:47:50.778Z,28.85
2022-10-24T10:50:32.596Z,20.70
2022-10-24T10:53:43.927Z,20.60
2022-10-24T10:56:37.039Z,18.67
2022-10-24T10:59:48.004Z,20.80
2022-10-24T11:02:35.150Z,18.35
2022-10-24T11:05:27.997Z,16.83
2022-10-24T11:08:05.326Z,15.43
2022-10-24T11:10:49.049Z,14.43
2022-10-24T11:13:39.085Z,10.68
2022-10-24T11:16:15.065Z,15.05
2022-10-24T11:18:48.103Z,26.42
2022-10-24T11:21:19.347Z,28.00
2022-10-24T11:24:00.246Z,12.35
2022-10-24T11:26:37.856Z,14.52
2022-10-24T11:29:40.649Z,15.70
2022-10-24T11:32:12.516Z,13.50
2022-10-24T11:34:52.015Z,17.80
2022-10-24T11:37:30.442Z,16.40
2022-10-24T11:40:00.895Z,10.98
2022-10-24T11:42:41.340Z,15.48
2022-10-24T11:45:17.186Z,13.98
2022-10-24T11:47:57.555Z,13.40
2022-10-24T11:50:38.598Z,10.65
2022-10-24T11:53:24.176Z,9.02
2022-10-24T11:56:03.542Z,18.92
2022-10-24T11:58:34.165Z,13.38
2022-10-24T12:01:20.842Z,16.85
2022-10-24T12:04:26.093Z,18.33
2022-10-24T12:07:29.597Z,14.82
2022-10-24T12:10:14.548Z,13.45
2022-10-24T12:13:01.367Z,10.63
2022-10-24T12:15:30.746Z,20.17
2022-10-24T12:18:28.314Z,18.38
2022-10-24T12:21:01.958Z,15.32
2022-10-24T12:23:36.895Z,16.25
2022-10-24T12:26:22.083Z,15.32
2022-10-24T12:29:07.134Z,11.00
2022-10-24T12:31:38.828Z,9.27
2022-10-24T12:34:16.667Z,21.55
2022-10-24T12:37:10.202Z,10.88
2022-10-24T12:39:50.966Z,13.18
2022-10-24T12:42:26.284Z,6.40
2022-10-24T12:45:06.728Z,9.35
2022-10-24T12:47:38.330Z,8.85
2022-10-24T12:50:21.988Z,6.50
2022-10-24T12:52:50.419Z,9.68
2022-10-24T12:55:51.746Z,8.57
2022-10-24T13:01:11.897Z,8.20
2022-10-24T13:03:52.222Z,9.40
2022-10-24T13:06:40.195Z,8.95
2022-10-24T13:09:18.901Z,10.07
2022-10-24T13:11:59.919Z,9.25
2022-10-24T13:15:01.816Z,11.93
2022-10-24T13:17:38.435Z,9.20
2022-10-24T13:20:17.662Z,6.63
2022-10-24T13:22:47.470Z,11.60
2022-10-24T13:25:28.551Z,8.07
2022-10-24T13:28:21.625Z,4.85
2022-10-24T13:30:53.475Z,13.30
2022-10-24T13:33:33.919Z,6.65
2022-10-24T13:36:07.990Z,7.00
2022-10-24T13:38:41.345Z,9.18
2022-10-24T13:41:18.020Z,12.23
2022-10-24T13:43:50.445Z,7.03
2022-10-24T13:46:46.052Z,9.05
2022-10-24T13:49:46.833Z,10.52
2022-10-24T13:52:48.335Z,9.00
2022-10-24T13:55:20.646Z,9.57
2022-10-24T13:58:06.169Z,11.73
2022-10-24T14:00:38.262Z,7.30
2022-10-24T14:03:17.328Z,7.68
2022-10-24T14:05:58.557Z,10.65
2022-10-24T14:08:37.406Z,9.00
2022-10-24T14:11:14.372Z,8.82
2022-10-24T14:13:57.339Z,14.15
2022-10-24T14:16:31.480Z,7.53
2022-10-24T14:19:16.680Z,11.35
2022-10-24T14:21:47.297Z,8.40
2022-10-24T14:24:21.139Z,12.40
2022-10-24T14:26:51.215Z,11.40
2022-10-24T14:29:29.461Z,11.30
2022-10-24T14:32:01.377Z,12.00
2022-10-24T14:37:15.047Z,6.28
2022-10-24T14:39:44.902Z,9.20
2022-10-24T14:42:19.896Z,7.55
2022-10-24T14:44:48.861Z,5.93
2022-10-24T14:47:46.658Z,8.60
2022-10-24T14:50:39.053Z,10.07
2022-10-24T14:53:20.806Z,41.90
2022-10-24T14:55:58.384Z,10.95
2022-10-24T14:58:30.663Z,7.00
2022-10-24T15:01:00.445Z,7.88
2022-10-24T15:03:33.497Z,12.30
2022-10-24T15:06:17.889Z,12.05
2022-10-24T15:08:46.511Z,12.63
2022-10-24T15:11:19.540Z,12.10
2022-10-24T15:14:06.306Z,13.90
2022-10-24T15:16:39.246Z,7.18
2022-10-24T15:19:16.745Z,11.88
2022-10-24T15:21:46.703Z,7.45
2022-10-24T15:24:34.842Z,7.20
2022-10-24T15:27:25.153Z,8.10
2022-10-24T15:29:56.804Z,9.75
2022-10-24T15:32:28.319Z,8.35
2022-10-24T15:34:59.134Z,7.75
2022-10-24T15:37:27.784Z,9.30
2022-10-24T15:39:56.386Z,9.10
2022-10-24T15:42:24.734Z,10.77
2022-10-24T15:44:52.788Z,5.15
2022-10-24T15:47:21.078Z,17.63
2022-10-24T15:49:49.605Z,16.48
2022-10-24T15:52:18.451Z,11.98
2022-10-24T15:54:47.003Z,13.10
2022-10-24T15:57:16.228Z,7.35
2022-10-24T15:59:46.858Z,9.30
2022-10-24T16:02:22.361Z,9.93
2022-10-24T16:04:51.215Z,13.65
2022-10-24T16:07:19.762Z,6.32
2022-10-24T16:09:48.196Z,7.18
2022-10-24T16:12:16.402Z,7.38
2022-10-24T16:14:44.687Z,15.70
2022-10-24T16:17:12.840Z,11.52
2022-10-24T16:19:40.989Z,5.57
2022-10-24T16:22:10.946Z,6.38
2022-10-24T16:24:39.145Z,7.85
2022-10-24T16:27:07.524Z,6.45
2022-10-24T16:29:35.647Z,11.10
2022-10-24T16:32:04.009Z,20.35
2022-10-24T16:34:32.146Z,14.63
2022-10-24T16:37:00.368Z,8.63
2022-10-24T16:39:28.553Z,12.27
2022-10-24T16:41:56.841Z,12.18
2022-10-24T16:44:25.081Z,12.88
2022-10-24T16:46:54.450Z,10.80
2022-10-24T16:49:22.838Z,9.38
2022-10-24T16:51:51.149Z,7.90
2022-10-24T16:54:19.476Z,7.25
2022-10-24T16:56:51.063Z,7.60
2022-10-24T16:59:21.907Z,9.65
2022-10-24T17:01:50.982Z,5.88
2022-10-24T17:04:19.307Z,10.18
2022-10-24T17:06:47.468Z,9.35
2022-10-24T17:09:16.109Z,7.82
2022-10-24T17:11:45.713Z,14.52
2022-10-24T17:14:14.615Z,9.23
2022-10-24T17:16:44.575Z,11.32
2022-10-24T17:19:16.275Z,6.45
2022-10-24T17:21:51.449Z,13.48
2022-10-24T17:24:22.596Z,10.40
2022-10-24T17:26:51.718Z,8.57
2022-10-24T17:29:32.187Z,8.43
2022-10-24T17:32:01.031Z,15.38
2022-10-24T17:34:29.540Z,9.85
2022-10-24T17:37:17.403Z,9.35
2022-10-24T17:39:54.425Z,7.20
2022-10-24T17:42:23.167Z,12.32
2022-10-24T17:44:51.519Z,8.93
2022-10-24T17:47:19.700Z,9.68
2022-10-24T17:49:48.082Z,5.93
2022-10-24T17:52:23.591Z,11.45
2022-10-24T17:54:52.306Z,9.38
2022-10-24T17:57:20.549Z,8.57
2022-10-24T17:59:50.865Z,16.60
2022-10-24T18:02:19.398Z,9.52
2022-10-24T18:04:47.637Z,16.25
2022-10-24T18:07:15.928Z,17.42
2022-10-24T18:09:44.250Z,11.43
2022-10-24T18:12:12.345Z,18.42
2022-10-24T18:14:40.522Z,13.68
2022-10-24T18:17:08.891Z,21.13
2022-10-24T18:19:37.117Z,15.45
2022-10-24T18:22:05.347Z,14.80
2022-10-24T18:24:33.576Z,14.02
2022-10-24T18:27:01.742Z,21.27
2022-10-24T18:29:29.947Z,22.65
2022-10-24T18:31:58.098Z,26.38
2022-10-24T18:34:26.468Z,24.60
2022-10-24T18:36:54.605Z,18.35
2022-10-24T18:39:26.269Z,14.10
2022-10-24T18:42:19.801Z,24.17
2022-10-24T18:44:51.114Z,16.73
2022-10-24T18:47:23.274Z,27.52
2022-10-24T18:49:54.089Z,25.20
2022-10-24T18:52:43.636Z,19.73
2022-10-24T18:55:15.238Z,20.98
2022-10-24T18:57:43.939Z,28.83
2022-10-24T19:00:17.970Z,24.80
2022-10-24T19:02:54.265Z,30.90
2022-10-24T19:05:25.658Z,24.77
2022-10-24T19:07:54.067Z,26.13
2022-10-24T19:10:25.416Z,24.70
2022-10-24T19:12:54.312Z,31.15
2022-10-24T19:15:22.838Z,22.50
2022-10-24T19:17:52.142Z,22.55
2022-10-24T19:20:24.375Z,38.88
2022-10-24T19:22:52.813Z,26.48
2022-10-24T19:25:21.218Z,28.40
2022-10-24T19:27:49.416Z,26.98
2022-10-24T19:30:18.007Z,28.48
2022-10-24T19:32:46.336Z,22.73
2022-10-24T19:35:14.942Z,31.98
2022-10-24T19:37:43.127Z,27.30
2022-10-24T19:40:11.950Z,18.83
2022-10-24T19:42:40.215Z,24.02
2022-10-24T19:45:08.797Z,20.80
2022-10-24T19:47:36.838Z,21.45
2022-10-24T19:50:05.380Z,22.52
2022-10-24T19:52:33.393Z,21.55
2022-10-24T19:55:02.005Z,33.78
2022-10-24T19:57:30.600Z,23.88
2022-10-24T19:59:58.905Z,21.58
2022-10-24T20:02:27.273Z,19.15
2022-10-24T20:04:55.380Z,24.77
2022-10-24T20:07:23.540Z,16.58
2022-10-24T20:09:51.885Z,22.65
2022-10-24T20:12:20.139Z,18.73
2022-10-24T20:14:48.329Z,21.92
2022-10-24T20:17:16.763Z,16.90
2022-10-24T20:19:45.028Z,26.83
2022-10-24T20:22:13.350Z,21.92
2022-10-24T20:24:41.508Z,18.35
2022-10-24T20:27:09.788Z,20.55
2022-10-24T20:29:38.202Z,18.95
2022-10-24T20:32:06.585Z,25.98
2022-10-24T20:34:34.982Z,17.83
2022-10-24T20:37:03.179Z,25.25
2022-10-24T20:39:31.388Z,15.95
2022-10-24T20:41:59.500Z,21.75
2022-10-24T20:44:27.906Z,23.25
2022-10-24T20:46:56.015Z,21.77
2022-10-24T20:49:24.298Z,19.08
2022-10-24T20:51:52.982Z,17.83
2022-10-24T20:54:21.262Z,15.05
2022-10-24T20:56:49.674Z,15.95
2022-10-24T20:59:18.217Z,26.35
2022-10-24T21:01:46.627Z,22.55
2022-10-24T21:04:17.037Z,21.50
2022-10-24T21:06:48.540Z,20.05
2022-10-24T21:09:17.003Z,17.92
2022-10-24T21:11:45.367Z,14.05
2022-10-24T21:14:14.496Z,15.80
2022-10-24T21:16:42.560Z,17.40
2022-10-24T21:19:10.749Z,16.95
2022-10-24T21:21:39.690Z,21.23
2022-10-24T21:24:08.534Z,18.80
2022-10-24T21:26:37.555Z,14.02
2022-10-24T21:29:27.977Z,15.05
2022-10-24T21:31:54.835Z,12.75
2022-10-24T21:34:23.175Z,16.30
2022-10-24T21:36:51.275Z,15.90
2022-10-24T21:39:19.601Z,12.52
2022-10-24T21:41:47.902Z,14.55
2022-10-24T21:44:16.103Z,18.55
2022-10-24T21:46:44.636Z,12.35
2022-10-24T21:49:13.016Z,11.32
2022-10-24T21:51:41.405Z,15.20
2022-10-24T21:54:18.401Z,23.00
2022-10-24T21:56:47.066Z,19.48
2022-10-24T21:59:20.887Z,11.25
2022-10-24T22:01:50.781Z,19.20
2022-10-24T22:04:19.809Z,26.67
2022-10-24T22:06:48.057Z,22.58
2022-10-24T22:09:19.203Z,11.15
2022-10-24T22:11:47.546Z,15.00
2022-10-24T22:14:17.064Z,20.40
2022-10-24T22:16:45.487Z,21.23
2022-10-24T22:19:14.468Z,30.27
2022-10-24T22:21:45.801Z,25.13
2022-10-24T22:24:21.038Z,18.73
2022-10-24T22:26:50.426Z,26.70
2022-10-24T22:29:21.845Z,35.05
2022-10-24T22:31:51.724Z,33.38
2022-10-24T22:34:23.615Z,31.65
2022-10-24T22:37:04.841Z,34.35
2022-10-24T22:39:33.451Z,36.20
2022-10-24T22:42:01.873Z,36.40
2022-10-24T22:44:30.171Z,40.85
2022-10-24T22:46:58.901Z,38.70
2022-10-24T22:49:44.213Z,47.13
2022-10-24T22:52:12.974Z,44.28
2022-10-24T22:54:41.597Z,42.53
2022-10-24T22:57:10.229Z,38.58
2022-10-24T22:59:38.980Z,33.53
2022-10-24T23:02:25.808Z,29.50
2022-10-24T23:05:23.228Z,30.40
2022-10-24T23:08:16.858Z,35.72
2022-10-24T23:10:45.447Z,29.75
2022-10-24T23:13:13.814Z,32.90
2022-10-24T23:15:42.205Z,39.40
2022-10-24T23:18:11.711Z,34.97
2022-10-24T23:20:52.400Z,32.50
2022-10-24T23:23:29.105Z,33.17
2022-10-24T23:26:04.324Z,33.50
2022-10-24T23:28:44.418Z,29.17
2022-10-24T23:31:12.970Z,30.55
2022-10-24T23:33:41.607Z,34.83
2022-10-24T23:36:19.474Z,37.97
2022-10-24T23:38:48.392Z,28.50
2022-10-24T23:41:16.781Z,34.20
2022-10-24T23:43:45.275Z,31.17
2022-10-24T23:46:25.524Z,30.55
2022-10-24T23:49:26.732Z,26.88
2022-10-24T23:52:17.789Z,29.40
2022-10-24T23:54:46.342Z,33.40
2022-10-24T23:57:19.961Z,27.75
2022-10-24T23:59:48.214Z,29.15
